Terminal Aerodrome Forecast
Issued by NWS North Platte, NE

Home | Current Version | Previous Version | Graphics & Text | Print | Product List | Glossary Off
Versions: 1 2 3 4 5 6 7 8 9 10 11 12 13 14 15 16 17 18 19 20

000
FTUS43 KLBF 190800 AAB
TAFVTN
TAF AMD
KVTN 190831Z 1909/2006 32012G18KT P6SM SCT008 OVC015
      TEMPO 1909/1912 P6SM OVC008
     FM191500 34022G32KT P6SM SCT250
     FM200200 33017G26KT P6SM SCT250=

USA.gov is the U.S. government's official web portal to all federal, state and local government web resources and services.